Time;durP1;ratioP1;P1;durP2;ratioP2;P2;SDS_P1;SDS_P2;PMS_P1;PMS_P2;Temp;Humidity;BMP_temperature;BMP_pressure;BME280_temperature;BME280_humidity;BME280_pressure;Samples;Min_cycle;Max_cycle;Signal;HPM_P1;HPM_P2
2023/12/26 00:01:54;;;;;;;3.40;1.80;;;;;;;11.91;72.32;99880.58;108107;1283;22008;-61
2023/12/26 00:04:20;;;;;;;2.60;1.30;;;;;;;12.00;72.16;99881.95;108298;1285;21976;-62
2023/12/26 00:06:46;;;;;;;4.20;1.50;;;;;;;12.05;72.20;99884.13;108128;1285;21989;-61
2023/12/26 00:09:12;;;;;;;3.80;1.90;;;;;;;12.08;72.53;99879.11;108098;1285;21955;-61
2023/12/26 00:11:42;;;;;;;2.80;1.50;;;;;;;12.20;72.78;99879.52;108249;1284;21987;-63
2023/12/26 00:14:08;;;;;;;3.50;1.70;;;;;;;12.33;72.82;99877.73;108089;1280;21988;-62
2023/12/26 00:16:34;;;;;;;3.60;1.80;;;;;;;12.56;73.06;99883.45;108083;1282;21993;-60
2023/12/26 00:18:59;;;;;;;3.70;1.80;;;;;;;12.77;72.81;99884.61;108136;1285;21990;-61
2023/12/26 00:21:25;;;;;;;5.10;2.10;;;;;;;12.95;72.57;99890.94;108148;1277;21989;-62
2023/12/26 00:23:50;;;;;;;4.40;2.20;;;;;;;13.09;72.48;99899.67;108075;1281;22001;-62
2023/12/26 00:26:16;;;;;;;4.20;1.90;;;;;;;13.18;72.28;99907.52;108023;1284;21989;-62
2023/12/26 00:28:41;;;;;;;5.20;2.20;;;;;;;13.22;71.73;99911.81;108061;1284;22459;-62
2023/12/26 00:31:07;;;;;;;3.70;2.00;;;;;;;13.25;71.56;99909.77;108121;1284;22452;-62
2023/12/26 00:33:33;;;;;;;4.00;2.50;;;;;;;13.28;71.14;99911.80;108261;1285;22004;-61
2023/12/26 00:35:59;;;;;;;4.20;2.30;;;;;;;13.31;70.88;99912.91;108204;1284;21997;-62
2023/12/26 00:38:26;;;;;;;5.50;2.10;;;;;;;13.33;70.47;99913.40;108151;1285;21994;-61
2023/12/26 00:40:51;;;;;;;4.70;2.50;;;;;;;13.37;70.50;99918.38;108107;1285;21992;-61
2023/12/26 00:43:17;;;;;;;3.90;2.50;;;;;;;13.40;70.42;99910.71;108062;1283;22000;-61
2023/12/26 00:45:42;;;;;;;4.10;2.30;;;;;;;13.40;70.22;99909.30;108087;1284;22011;-61
2023/12/26 00:48:08;;;;;;;4.70;2.10;;;;;;;13.38;70.25;99907.43;108067;1283;21995;-62
2023/12/26 00:50:41;;;;;;;3.50;2.40;;;;;;;13.35;70.30;99910.67;108099;1285;22053;-61
2023/12/26 00:53:08;;;;;;;4.80;2.60;;;;;;;13.32;70.29;99912.36;108224;1279;21979;-61
2023/12/26 00:55:35;;;;;;;5.50;2.60;;;;;;;13.28;70.28;99915.33;108088;1285;21990;-62
2023/12/26 00:58:00;;;;;;;4.90;2.30;;;;;;;13.22;70.31;99918.69;108081;1280;22004;-63
2023/12/26 01:00:26;;;;;;;3.90;2.40;;;;;;;13.15;70.23;99918.89;108125;1284;22038;-62
2023/12/26 01:02:51;;;;;;;4.60;2.00;;;;;;;13.08;70.23;99921.54;108147;1276;22026;-62
2023/12/26 01:05:17;;;;;;;5.30;2.20;;;;;;;13.02;70.15;99919.95;108227;1285;21984;-62
2023/12/26 01:07:42;;;;;;;4.30;1.80;;;;;;;12.95;70.03;99921.23;108177;1285;22831;-61
2023/12/26 01:10:08;;;;;;;5.10;2.00;;;;;;;12.89;69.99;99924.92;108052;1284;21987;-62
2023/12/26 01:12:35;;;;;;;3.30;1.70;;;;;;;12.83;69.99;99926.85;108149;1284;21998;-62
2023/12/26 01:15:01;;;;;;;3.70;2.00;;;;;;;12.81;70.28;99928.84;108056;1285;22046;-60
2023/12/26 01:17:26;;;;;;;3.80;2.00;;;;;;;12.85;70.58;99931.39;108104;1285;21998;-64
2023/12/26 01:19:52;;;;;;;5.00;1.70;;;;;;;12.88;70.56;99934.80;108129;1280;21992;-62
2023/12/26 01:22:17;;;;;;;3.30;1.60;;;;;;;12.91;70.45;99933.83;108106;1285;22101;-61
2023/12/26 01:24:43;;;;;;;3.20;1.40;;;;;;;12.95;70.38;99933.02;108098;1285;22001;-61
2023/12/26 01:27:08;;;;;;;4.60;1.70;;;;;;;12.99;70.16;99933.27;108162;1284;21993;-62
2023/12/26 01:29:34;;;;;;;3.80;1.50;;;;;;;13.03;69.97;99940.19;108109;1284;22030;-62
2023/12/26 01:31:59;;;;;;;3.40;1.70;;;;;;;13.00;69.66;99943.44;108123;1285;21987;-61
2023/12/26 01:34:25;;;;;;;6.10;1.70;;;;;;;12.99;69.37;99946.14;108087;1285;21988;-61
2023/12/26 01:36:50;;;;;;;2.90;1.50;;;;;;;12.97;69.42;99952.01;108115;1285;22096;-62
2023/12/26 01:39:16;;;;;;;3.30;1.20;;;;;;;12.93;69.21;99958.79;105153;1284;1003146;-62
2023/12/26 01:41:42;;;;;;;2.70;1.40;;;;;;;12.89;69.02;99963.84;108140;1285;21992;-61
2023/12/26 01:44:07;;;;;;;2.40;1.40;;;;;;;12.86;69.03;99970.61;108138;1284;21979;-61
2023/12/26 01:46:33;;;;;;;3.60;1.80;;;;;;;12.82;68.96;99975.83;108101;1284;22001;-61
2023/12/26 01:49:00;;;;;;;2.10;1.30;;;;;;;12.76;68.93;99983.94;108117;1285;21992;-61
2023/12/26 01:51:26;;;;;;;2.90;1.40;;;;;;;12.69;68.82;99991.14;108121;1285;21996;-62
2023/12/26 01:53:51;;;;;;;2.80;1.40;;;;;;;12.63;68.84;99990.79;108134;1285;21997;-62
2023/12/26 01:56:17;;;;;;;3.40;1.80;;;;;;;12.56;68.71;99991.33;108255;1274;22047;-62
2023/12/26 01:58:44;;;;;;;2.60;1.20;;;;;;;12.49;68.81;99996.95;108130;1285;22002;-60
2023/12/26 02:01:10;;;;;;;5.50;1.40;;;;;;;12.43;68.96;99995.89;108180;1276;22000;-61
2023/12/26 02:03:35;;;;;;;2.60;1.30;;;;;;;12.38;69.24;99995.31;108147;1285;21991;-61
2023/12/26 02:06:01;;;;;;;2.50;1.30;;;;;;;12.34;69.50;100000.52;108236;1274;21989;-61
2023/12/26 02:08:27;;;;;;;2.40;1.10;;;;;;;12.32;69.61;99999.50;108071;1284;22015;-61
2023/12/26 02:10:53;;;;;;;2.10;1.10;;;;;;;12.32;69.83;100001.98;108190;1284;21997;-62
2023/12/26 02:13:19;;;;;;;2.30;1.30;;;;;;;12.30;69.84;100003.42;105861;1284;1003014;-60
2023/12/26 02:15:48;;;;;;;4.10;1.30;;;;;;;12.29;69.80;100006.28;108073;1284;21997;-61
2023/12/26 02:18:13;;;;;;;3.10;1.20;;;;;;;12.26;69.89;100013.03;108089;1285;22028;-61
2023/12/26 02:20:39;;;;;;;2.80;1.30;;;;;;;12.24;69.81;100016.78;108128;1285;21992;-63
2023/12/26 02:23:05;;;;;;;3.10;1.30;;;;;;;12.20;69.65;100016.52;108062;1280;22003;-63
2023/12/26 02:25:30;;;;;;;2.80;1.40;;;;;;;12.16;69.71;100018.02;108126;1284;21995;-62
2023/12/26 02:27:56;;;;;;;2.50;1.20;;;;;;;12.13;69.82;100023.73;108143;1275;21988;-61
2023/12/26 02:30:22;;;;;;;3.10;1.30;;;;;;;12.12;70.01;100022.00;108223;1285;21987;-61
2023/12/26 02:32:48;;;;;;;2.20;1.20;;;;;;;12.11;69.87;100022.89;108092;1284;21989;-60
2023/12/26 02:35:13;;;;;;;2.00;1.20;;;;;;;12.08;69.89;100025.43;108059;1285;21996;-60
2023/12/26 02:37:39;;;;;;;2.40;1.10;;;;;;;12.04;69.77;100029.39;108147;1285;22000;-64
2023/12/26 02:40:05;;;;;;;2.70;1.60;;;;;;;11.99;69.46;100036.34;108056;1285;22028;-61
2023/12/26 02:42:31;;;;;;;4.10;1.60;;;;;;;11.91;69.35;100045.12;108133;1277;21989;-63
2023/12/26 02:44:57;;;;;;;3.20;1.50;;;;;;;11.83;69.28;100053.95;108114;1285;22006;-61
2023/12/26 02:47:23;;;;;;;2.60;1.30;;;;;;;11.75;69.35;100058.85;108109;1285;22062;-63
2023/12/26 02:49:49;;;;;;;3.50;1.70;;;;;;;11.66;69.29;100059.95;108169;1285;22006;-60
2023/12/26 02:52:14;;;;;;;2.60;1.10;;;;;;;11.59;69.48;100060.79;108203;1277;21989;-64
2023/12/26 02:54:40;;;;;;;3.00;1.20;;;;;;;11.53;69.71;100059.87;108111;1280;21989;-60
2023/12/26 02:57:06;;;;;;;2.10;1.00;;;;;;;11.48;70.19;100059.79;108263;1285;21989;-61
2023/12/26 02:59:31;;;;;;;2.00;1.20;;;;;;;11.48;70.44;100059.11;108308;1280;21988;-61
2023/12/26 03:01:59;;;;;;;3.80;1.40;;;;;;;11.49;71.19;100056.60;108124;1285;21987;-61
2023/12/26 03:04:26;;;;;;;3.70;1.60;;;;;;;11.53;71.57;100057.39;108194;1285;21996;-61
2023/12/26 03:06:52;;;;;;;3.60;1.40;;;;;;;11.57;71.85;100049.21;108318;1285;21985;-61
2023/12/26 03:09:18;;;;;;;3.20;1.40;;;;;;;11.58;71.68;100049.73;108255;1285;22000;-62
2023/12/26 03:11:43;;;;;;;3.00;1.20;;;;;;;11.56;71.32;100047.31;108106;1279;21999;-62
2023/12/26 03:14:09;;;;;;;2.70;1.30;;;;;;;11.53;71.68;100051.94;108110;1280;21991;-61
2023/12/26 03:16:35;;;;;;;2.20;1.10;;;;;;;11.54;72.06;100056.67;108104;1285;22048;-62
2023/12/26 03:19:00;;;;;;;4.10;1.50;;;;;;;11.56;72.56;100061.55;108149;1285;22049;-61
2023/12/26 03:21:26;;;;;;;2.90;1.50;;;;;;;11.59;72.41;100069.04;108078;1283;21991;-62
2023/12/26 03:23:51;;;;;;;3.50;1.30;;;;;;;11.61;72.43;100072.86;108098;1284;21995;-62
2023/12/26 03:26:17;;;;;;;2.50;1.30;;;;;;;11.62;72.30;100073.20;108129;1284;21988;-62
2023/12/26 03:28:43;;;;;;;5.80;1.60;;;;;;;11.61;72.53;100071.63;108115;1274;22070;-61
2023/12/26 03:31:08;;;;;;;2.50;1.40;;;;;;;11.63;72.95;100075.29;108087;1277;21987;-61
2023/12/26 03:33:35;;;;;;;3.00;1.50;;;;;;;11.66;73.48;100077.88;108176;1283;21987;-62
2023/12/26 03:36:01;;;;;;;3.70;1.50;;;;;;;11.68;73.96;100089.59;108087;1285;21989;-62
2023/12/26 03:38:26;;;;;;;3.00;1.30;;;;;;;11.70;73.68;100099.92;108084;1285;21993;-62
2023/12/26 03:40:52;;;;;;;1.90;1.10;;;;;;;11.71;73.27;100103.05;108085;1285;21999;-61
2023/12/26 03:43:17;;;;;;;3.20;1.00;;;;;;;11.71;72.76;100106.04;108098;1283;21987;-59
2023/12/26 03:45:44;;;;;;;3.00;1.50;;;;;;;11.69;72.59;100111.54;108099;1286;21992;-60
2023/12/26 03:48:10;;;;;;;3.00;1.30;;;;;;;11.63;72.18;100108.85;108188;1286;21999;-61
2023/12/26 03:50:35;;;;;;;4.70;1.60;;;;;;;11.54;71.88;100107.45;108217;1283;22008;-60
2023/12/26 03:53:01;;;;;;;3.10;1.40;;;;;;;11.45;72.08;100111.52;108110;1280;21990;-59
2023/12/26 03:55:26;;;;;;;4.00;1.30;;;;;;;11.39;72.44;100113.55;108106;1286;21990;-58
2023/12/26 03:57:52;;;;;;;3.50;1.40;;;;;;;11.37;72.48;100116.58;108109;1286;21994;-60
2023/12/26 04:00:18;;;;;;;2.50;1.20;;;;;;;11.37;72.89;100125.54;108141;1280;21992;-59
2023/12/26 04:02:44;;;;;;;3.20;1.30;;;;;;;11.36;73.31;100123.09;108101;1285;22227;-61
2023/12/26 04:05:09;;;;;;;2.90;1.20;;;;;;;11.36;73.43;100124.33;108090;1281;22449;-61
2023/12/26 04:07:35;;;;;;;1.80;1.00;;;;;;;11.36;73.46;100126.60;108093;1285;21998;-61
2023/12/26 04:10:01;;;;;;;3.50;1.60;;;;;;;11.37;73.30;100130.11;108070;1280;21988;-60
2023/12/26 04:12:27;;;;;;;4.50;1.60;;;;;;;11.35;73.21;100129.27;108088;1285;21989;-59
2023/12/26 04:14:52;;;;;;;3.40;1.40;;;;;;;11.33;72.99;100127.54;108271;1280;23050;-60
2023/12/26 04:17:19;;;;;;;2.10;1.20;;;;;;;11.30;72.92;100130.93;108159;1285;22002;-59
2023/12/26 04:19:45;;;;;;;4.50;1.70;;;;;;;11.25;72.72;100137.17;108126;1285;21984;-59
2023/12/26 04:22:10;;;;;;;3.10;1.40;;;;;;;11.20;72.56;100138.52;108098;1285;21991;-60
2023/12/26 04:24:36;;;;;;;3.80;1.00;;;;;;;11.14;72.67;100136.34;108075;1281;21992;-60
2023/12/26 04:27:02;;;;;;;3.10;1.50;;;;;;;11.12;72.87;100131.45;108095;1284;21989;-60
2023/12/26 04:29:27;;;;;;;2.30;1.20;;;;;;;11.11;73.24;100127.78;108088;1278;22452;-59
2023/12/26 04:31:53;;;;;;;2.20;1.10;;;;;;;11.10;73.15;100125.33;108093;1285;22005;-60
2023/12/26 04:34:18;;;;;;;3.50;1.60;;;;;;;11.10;73.31;100130.24;108102;1281;22027;-59
2023/12/26 04:36:44;;;;;;;2.40;1.30;;;;;;;11.05;73.12;100141.04;108063;1280;21986;-60
2023/12/26 04:39:09;;;;;;;3.30;1.30;;;;;;;10.93;73.51;100141.10;108076;1276;21986;-61
2023/12/26 04:41:35;;;;;;;3.20;1.50;;;;;;;10.82;74.58;100150.05;108093;1284;21992;-59
2023/12/26 04:44:01;;;;;;;3.30;1.70;;;;;;;10.78;74.94;100150.13;108065;1285;21988;-59
2023/12/26 04:46:26;;;;;;;3.40;1.60;;;;;;;10.78;75.45;100147.86;108127;1277;22000;-59
2023/12/26 04:48:53;;;;;;;2.80;1.40;;;;;;;10.78;75.55;100157.33;108243;1285;21992;-62
2023/12/26 04:51:19;;;;;;;2.80;1.60;;;;;;;10.78;76.25;100156.99;108167;1285;21994;-60
2023/12/26 04:53:47;;;;;;;2.90;1.40;;;;;;;10.79;76.77;100156.61;108114;1285;21996;-60
2023/12/26 04:56:17;;;;;;;3.60;1.80;;;;;;;10.82;77.25;100157.42;108158;1285;21995;-60
2023/12/26 04:58:49;;;;;;;3.90;1.60;;;;;;;10.86;77.91;100159.82;108101;1285;21965;-60
2023/12/26 05:01:15;;;;;;;3.40;1.60;;;;;;;10.91;77.33;100159.56;108194;1285;21961;-61
2023/12/26 05:03:41;;;;;;;5.80;1.80;;;;;;;10.95;77.26;100159.85;108177;1272;22043;-60
2023/12/26 05:06:07;;;;;;;3.60;1.60;;;;;;;11.01;77.44;100162.73;108228;1284;21986;-60
2023/12/26 05:08:33;;;;;;;3.80;2.10;;;;;;;11.11;77.40;100164.30;108205;1285;21990;-60
2023/12/26 05:10:58;;;;;;;3.50;1.60;;;;;;;11.20;77.29;100161.70;108072;1285;21987;-62
2023/12/26 05:13:24;;;;;;;4.30;1.80;;;;;;;11.26;77.36;100158.59;108157;1285;22003;-61
2023/12/26 05:15:50;;;;;;;3.30;1.80;;;;;;;11.33;77.43;100160.75;108157;1285;21997;-59
2023/12/26 05:18:15;;;;;;;4.30;1.70;;;;;;;11.41;77.86;100161.48;108094;1280;21976;-59
2023/12/26 05:20:41;;;;;;;5.70;2.20;;;;;;;11.48;77.95;100165.55;108084;1285;22019;-59
2023/12/26 05:23:06;;;;;;;6.00;2.00;;;;;;;11.55;77.81;100171.22;108100;1285;21991;-60
2023/12/26 05:25:32;;;;;;;3.60;1.70;;;;;;;11.60;77.73;100174.29;108087;1273;21993;-59
2023/12/26 05:27:58;;;;;;;6.10;1.50;;;;;;;11.65;77.96;100174.18;108079;1284;21991;-59
2023/12/26 05:30:24;;;;;;;3.10;1.80;;;;;;;11.71;77.99;100177.75;108120;1284;21998;-59
2023/12/26 05:32:50;;;;;;;7.30;1.50;;;;;;;11.78;78.00;100181.33;108000;1283;21988;-61
2023/12/26 05:35:15;;;;;;;5.10;1.60;;;;;;;11.83;78.22;100184.01;108147;1276;21987;-60
2023/12/26 05:37:41;;;;;;;4.90;2.10;;;;;;;11.90;78.29;100186.69;108142;1281;22008;-59
2023/12/26 05:40:07;;;;;;;7.00;1.80;;;;;;;11.96;78.04;100180.21;108088;1277;21995;-59
2023/12/26 05:42:33;;;;;;;3.60;1.50;;;;;;;12.01;78.24;100178.39;108195;1272;22025;-59
2023/12/26 05:44:58;;;;;;;4.50;1.60;;;;;;;12.06;78.10;100181.65;108096;1285;22001;-59
2023/12/26 05:47:24;;;;;;;4.00;1.80;;;;;;;12.08;77.76;100181.42;108051;1283;22032;-61
2023/12/26 05:49:49;;;;;;;3.80;1.90;;;;;;;12.11;77.78;100184.36;108101;1285;21995;-61
2023/12/26 05:52:15;;;;;;;2.90;1.40;;;;;;;12.12;77.41;100185.90;108079;1285;22007;-61
2023/12/26 05:54:40;;;;;;;4.70;1.60;;;;;;;12.13;77.54;100187.14;108061;1276;21989;-59
2023/12/26 05:57:06;;;;;;;6.70;1.70;;;;;;;12.11;77.71;100188.73;108122;1286;22455;-61
2023/12/26 05:59:32;;;;;;;3.20;1.50;;;;;;;12.10;78.07;100191.23;108103;1285;22031;-61
2023/12/26 06:01:57;;;;;;;4.30;2.10;;;;;;;12.12;78.78;100196.46;108116;1283;23425;-61
2023/12/26 06:04:23;;;;;;;4.90;1.90;;;;;;;12.18;78.54;100198.27;108092;1285;22003;-61
2023/12/26 06:06:48;;;;;;;4.10;1.80;;;;;;;12.23;78.26;100200.28;108200;1284;22011;-61
2023/12/26 06:09:15;;;;;;;4.30;1.70;;;;;;;12.25;78.25;100199.35;108096;1285;21997;-62
2023/12/26 06:11:40;;;;;;;3.90;1.70;;;;;;;12.27;78.02;100205.12;108101;1285;21994;-60
2023/12/26 06:14:07;;;;;;;3.80;2.00;;;;;;;12.27;77.97;100213.36;108084;1284;21996;-60
2023/12/26 06:16:33;;;;;;;5.20;1.80;;;;;;;12.29;78.08;100226.53;108070;1284;21979;-60
2023/12/26 06:18:58;;;;;;;3.10;1.70;;;;;;;12.32;78.15;100236.84;108089;1273;21995;-60
2023/12/26 06:21:24;;;;;;;3.20;1.50;;;;;;;12.36;78.11;100240.08;108080;1283;21994;-60
2023/12/26 06:23:49;;;;;;;6.20;1.60;;;;;;;12.39;77.94;100240.91;108099;1285;21993;-60
2023/12/26 06:26:17;;;;;;;3.70;1.80;;;;;;;12.40;77.96;100246.35;108127;1284;22109;-60
2023/12/26 06:28:43;;;;;;;3.90;1.80;;;;;;;12.40;78.05;100249.67;108148;1284;21999;-61
2023/12/26 06:31:15;;;;;;;4.00;2.00;;;;;;;12.41;77.99;100251.05;108078;1274;21993;-62
2023/12/26 06:33:41;;;;;;;4.00;1.60;;;;;;;12.42;77.70;100260.02;108910;1284;21985;-61
2023/12/26 06:36:07;;;;;;;3.40;2.10;;;;;;;12.33;76.76;100262.52;108149;1285;21988;-62
2023/12/26 06:38:33;;;;;;;4.60;1.50;;;;;;;12.17;76.19;100267.23;108188;1274;22002;-61
2023/12/26 06:40:58;;;;;;;3.50;1.60;;;;;;;12.02;76.66;100271.39;108194;1277;21995;-61
2023/12/26 06:43:24;;;;;;;3.10;2.10;;;;;;;11.96;76.93;100268.50;108090;1285;21969;-60
2023/12/26 06:45:49;;;;;;;3.70;1.90;;;;;;;11.93;77.09;100276.31;108118;1277;22011;-62
2023/12/26 06:48:15;;;;;;;4.80;2.10;;;;;;;11.92;77.88;100285.83;108157;1283;21989;-60
2023/12/26 06:50:40;;;;;;;4.10;2.20;;;;;;;11.95;78.33;100295.45;108201;1280;22052;-60
2023/12/26 06:53:06;;;;;;;3.80;1.90;;;;;;;11.98;78.47;100301.18;108140;1285;22001;-60
2023/12/26 06:55:32;;;;;;;5.30;2.50;;;;;;;12.04;78.82;100311.29;108121;1285;21999;-59
2023/12/26 06:57:57;;;;;;;4.30;2.20;;;;;;;12.11;79.11;100311.70;108166;1276;21967;-62
2023/12/26 07:00:24;;;;;;;4.50;2.30;;;;;;;12.17;79.57;100307.52;108235;1285;21985;-61
2023/12/26 07:02:49;;;;;;;4.20;2.30;;;;;;;12.24;79.59;100302.63;108198;1277;22001;-62
2023/12/26 07:05:15;;;;;;;4.00;2.20;;;;;;;12.28;79.81;100306.94;108236;1285;22276;-60
2023/12/26 07:07:41;;;;;;;4.40;2.80;;;;;;;12.33;80.37;100309.67;108233;1274;22032;-62
2023/12/26 07:10:06;;;;;;;7.20;3.20;;;;;;;12.40;80.53;100313.56;108102;1279;21995;-60
2023/12/26 07:12:32;;;;;;;4.70;2.60;;;;;;;12.50;80.57;100313.89;108245;1284;21999;-61
2023/12/26 07:14:58;;;;;;;4.90;2.90;;;;;;;12.59;80.82;100315.27;108106;1277;22000;-61
2023/12/26 07:17:26;;;;;;;5.10;2.60;;;;;;;12.70;80.63;100320.84;108257;1284;22013;-61
2023/12/26 07:19:52;;;;;;;4.10;2.30;;;;;;;12.81;80.87;100322.39;108230;1280;21985;-62
2023/12/26 07:22:17;;;;;;;5.70;3.20;;;;;;;12.90;80.87;100318.82;108155;1285;21991;-60
2023/12/26 07:24:43;;;;;;;4.00;1.70;;;;;;;12.98;80.67;100322.86;108224;1286;22000;-61
2023/12/26 07:27:09;;;;;;;3.60;1.80;;;;;;;13.04;80.47;100327.11;108113;1284;23778;-61
2023/12/26 07:29:34;;;;;;;2.90;1.50;;;;;;;13.10;80.19;100329.80;108165;1284;22000;-60
2023/12/26 07:32:00;;;;;;;3.80;2.00;;;;;;;13.16;80.41;100323.85;108077;1285;22000;-60
2023/12/26 07:34:25;;;;;;;4.20;1.80;;;;;;;13.23;81.03;100323.34;108108;1285;21964;-60
2023/12/26 07:36:54;;;;;;;3.00;1.40;;;;;;;13.36;81.01;100323.91;108104;1276;21997;-60
2023/12/26 07:39:20;;;;;;;2.90;1.60;;;;;;;13.50;81.22;100326.93;108178;1284;22011;-61
2023/12/26 07:41:45;;;;;;;2.50;1.30;;;;;;;13.65;81.66;100323.21;108083;1280;21997;-61
2023/12/26 07:44:11;;;;;;;2.90;1.50;;;;;;;13.82;82.04;100326.29;108169;1284;22024;-60
2023/12/26 07:46:36;;;;;;;5.40;2.00;;;;;;;14.01;82.69;100327.54;108052;1285;21992;-61
2023/12/26 07:49:02;;;;;;;3.90;1.50;;;;;;;14.17;82.30;100324.98;108091;1283;21990;-61
2023/12/26 07:51:28;;;;;;;5.90;2.40;;;;;;;14.33;82.34;100321.71;108086;1285;21992;-60
2023/12/26 07:53:53;;;;;;;4.60;2.40;;;;;;;14.47;81.96;100324.13;108131;1275;21993;-60
2023/12/26 07:56:19;;;;;;;7.20;2.30;;;;;;;14.58;81.69;100332.64;108108;1280;21978;-60
2023/12/26 07:58:45;;;;;;;4.10;2.60;;;;;;;14.67;81.51;100338.38;107380;1276;1002806;-60
2023/12/26 08:01:12;;;;;;;4.70;2.00;;;;;;;14.75;81.18;100341.72;108152;1274;21983;-61
2023/12/26 08:03:38;;;;;;;4.90;2.50;;;;;;;14.83;80.98;100346.23;108159;1283;21992;-61
2023/12/26 08:06:04;;;;;;;3.90;2.20;;;;;;;14.88;80.85;100346.08;108100;1280;21990;-61
2023/12/26 08:08:29;;;;;;;5.20;2.10;;;;;;;14.94;80.50;100343.07;108065;1273;21958;-61
2023/12/26 08:10:55;;;;;;;3.30;1.80;;;;;;;15.01;80.06;100346.55;108090;1284;21992;-60
2023/12/26 08:13:21;;;;;;;3.90;2.40;;;;;;;15.09;79.84;100346.16;108099;1284;24401;-60
2023/12/26 08:15:46;;;;;;;3.90;1.70;;;;;;;15.13;79.81;100347.98;108107;1284;22000;-61
2023/12/26 08:18:12;;;;;;;4.20;1.40;;;;;;;15.14;79.33;100341.21;108116;1285;21996;-60
2023/12/26 08:20:38;;;;;;;3.50;1.40;;;;;;;15.14;78.94;100339.98;108089;1285;21979;-60
2023/12/26 08:23:03;;;;;;;3.90;1.50;;;;;;;15.18;79.03;100341.29;108049;1286;21996;-61
2023/12/26 08:25:29;;;;;;;3.60;1.30;;;;;;;15.20;79.12;100338.91;108140;1284;118895;-60
2023/12/26 08:27:55;;;;;;;3.50;1.40;;;;;;;15.22;79.31;100333.54;108212;1284;21993;-61
2023/12/26 08:30:21;;;;;;;3.70;1.60;;;;;;;15.24;79.25;100328.87;108144;1285;21997;-60
2023/12/26 08:32:47;;;;;;;4.90;2.40;;;;;;;15.25;79.26;100318.61;108203;1284;21993;-59
2023/12/26 08:35:13;;;;;;;2.80;1.40;;;;;;;15.28;79.69;100317.98;108281;1274;23052;-60
2023/12/26 08:37:39;;;;;;;2.80;1.20;;;;;;;15.30;79.79;100316.49;108163;1277;21997;-62
2023/12/26 08:40:06;;;;;;;4.70;1.40;;;;;;;15.32;79.88;100317.67;108232;1284;21992;-61
2023/12/26 08:42:31;;;;;;;3.10;1.30;;;;;;;15.40;80.30;100315.46;108102;1285;21994;-61
2023/12/26 08:44:57;;;;;;;2.60;1.30;;;;;;;15.53;81.15;100304.41;108079;1274;21990;-60
2023/12/26 08:47:23;;;;;;;3.90;2.00;;;;;;;15.74;81.64;100304.59;108043;1285;21998;-60
2023/12/26 08:49:48;;;;;;;3.10;1.80;;;;;;;15.97;81.36;100306.98;108069;1284;22000;-61
2023/12/26 08:52:14;;;;;;;4.20;1.80;;;;;;;16.20;80.65;100305.44;108060;1284;21984;-62
2023/12/26 08:54:43;;;;;;;2.60;1.40;;;;;;;16.44;80.32;100300.66;108219;1284;21989;-60
2023/12/26 08:57:09;;;;;;;4.20;1.80;;;;;;;16.71;80.25;100291.83;107982;1284;23100;-61
2023/12/26 08:59:35;;;;;;;3.10;1.40;;;;;;;16.94;80.12;100294.31;108119;1284;21986;-61
2023/12/26 09:02:00;;;;;;;3.40;1.90;;;;;;;17.18;79.50;100295.13;108552;1284;21997;-61
2023/12/26 09:04:26;;;;;;;2.80;1.70;;;;;;;17.36;78.91;100289.09;108272;1276;21991;-62
2023/12/26 09:06:53;;;;;;;3.20;1.40;;;;;;;17.50;78.40;100289.04;108072;1285;21988;-60
2023/12/26 09:09:18;;;;;;;3.90;1.80;;;;;;;17.62;77.82;100288.86;108067;1283;21999;-60
2023/12/26 09:11:44;;;;;;;2.90;1.20;;;;;;;17.76;77.82;100288.84;108163;1283;21990;-61
2023/12/26 09:14:10;;;;;;;2.20;0.80;;;;;;;17.88;77.75;100285.64;108419;1284;22341;-60
2023/12/26 09:16:35;;;;;;;2.00;1.20;;;;;;;18.03;77.30;100283.77;108108;1283;22001;-61
2023/12/26 09:19:01;;;;;;;2.30;1.10;;;;;;;18.21;76.59;100281.16;108186;1285;21993;-61
2023/12/26 09:21:27;;;;;;;3.90;1.30;;;;;;;18.41;75.96;100280.10;108211;1285;21988;-61
2023/12/26 09:23:52;;;;;;;3.20;1.40;;;;;;;18.61;75.60;100278.08;108192;1285;22073;-61
2023/12/26 09:26:21;;;;;;;2.90;1.00;;;;;;;18.78;74.10;100281.20;108354;1284;21989;-61
2023/12/26 09:28:46;;;;;;;2.40;1.20;;;;;;;18.93;72.63;100277.46;108225;1284;23082;-61
2023/12/26 09:31:12;;;;;;;2.80;1.20;;;;;;;19.08;72.20;100277.48;107990;1285;21988;-61
2023/12/26 09:33:38;;;;;;;3.00;1.20;;;;;;;19.22;72.39;100278.55;108054;1280;21994;-61
2023/12/26 09:36:04;;;;;;;3.30;1.50;;;;;;;19.26;70.42;100279.93;108079;1285;21987;-61
2023/12/26 09:38:30;;;;;;;4.90;1.60;;;;;;;19.31;71.06;100275.96;108295;1283;22007;-61
2023/12/26 09:40:56;;;;;;;3.00;1.70;;;;;;;19.33;69.51;100273.77;108309;1285;22007;-61
2023/12/26 09:43:22;;;;;;;3.60;1.20;;;;;;;19.33;68.85;100268.56;108030;1283;22159;-60
2023/12/26 09:45:47;;;;;;;2.70;1.20;;;;;;;19.32;67.93;100264.54;108062;1285;22028;-61
2023/12/26 09:48:13;;;;;;;2.80;1.30;;;;;;;19.36;68.65;100265.42;108054;1285;21987;-60
2023/12/26 09:50:39;;;;;;;2.50;1.20;;;;;;;19.36;68.34;100265.94;108122;1285;21992;-61
2023/12/26 09:53:07;;;;;;;3.00;1.40;;;;;;;19.36;67.01;100267.91;108111;1285;22011;-61
2023/12/26 09:55:33;;;;;;;3.70;1.50;;;;;;;19.43;66.92;100269.13;108049;1285;21990;-61
2023/12/26 09:57:58;;;;;;;4.10;1.30;;;;;;;19.39;65.73;100265.27;108102;1285;21995;-60
2023/12/26 10:00:26;;;;;;;3.80;1.50;;;;;;;19.45;67.59;100263.34;108124;1280;21995;-61
2023/12/26 10:02:55;;;;;;;2.60;1.00;;;;;;;19.48;67.56;100263.91;108091;1280;21982;-61
2023/12/26 10:05:21;;;;;;;2.50;1.30;;;;;;;19.52;68.09;100263.16;108127;1285;21994;-61
2023/12/26 10:07:50;;;;;;;4.00;1.60;;;;;;;19.50;66.98;100262.55;108102;1283;22001;-61
2023/12/26 10:10:19;;;;;;;4.50;1.60;;;;;;;19.50;66.75;100258.11;108136;1273;21977;-60
2023/12/26 10:12:46;;;;;;;3.30;1.70;;;;;;;19.51;67.41;100249.16;108125;1285;22003;-61
2023/12/26 10:15:12;;;;;;;3.20;1.70;;;;;;;19.53;67.39;100245.35;108413;1284;21988;-61
2023/12/26 10:17:38;;;;;;;3.00;1.50;;;;;;;19.55;67.98;100239.89;108232;1280;23061;-61
2023/12/26 10:20:05;;;;;;;4.30;1.80;;;;;;;19.58;68.07;100241.51;108201;1274;21998;-61
2023/12/26 10:22:31;;;;;;;3.10;1.30;;;;;;;19.63;67.32;100241.42;108259;1280;21989;-62
2023/12/26 10:25:00;;;;;;;2.70;1.40;;;;;;;19.69;67.02;100243.09;108187;1276;21996;-61
2023/12/26 10:27:25;;;;;;;2.30;1.30;;;;;;;19.71;66.62;100244.73;108172;1284;21990;-60
2023/12/26 10:29:53;;;;;;;3.40;1.50;;;;;;;19.75;67.63;100248.65;108186;1285;21997;-61
2023/12/26 10:32:20;;;;;;;3.00;1.40;;;;;;;19.72;65.41;100251.97;108250;1285;21974;-61
2023/12/26 10:34:45;;;;;;;2.60;1.50;;;;;;;19.73;66.15;100250.67;108098;1285;21990;-62
2023/12/26 10:37:11;;;;;;;2.40;1.30;;;;;;;19.71;65.44;100247.05;107308;1285;1002755;-61
2023/12/26 10:39:36;;;;;;;2.60;1.20;;;;;;;19.69;65.87;100243.05;108035;1285;22008;-61
2023/12/26 10:42:03;;;;;;;4.40;1.50;;;;;;;19.68;65.63;100242.75;108093;1276;22083;-61
2023/12/26 10:45:04;;;;;;;2.80;1.50;;;;;;;19.67;66.05;100241.91;108196;1282;21984;-61
2023/12/26 10:47:33;;;;;;;3.50;1.50;;;;;;;19.60;64.67;100241.56;108080;1285;22007;-61
2023/12/26 10:50:00;;;;;;;4.10;1.50;;;;;;;19.61;65.00;100238.67;108131;1285;21990;-61
2023/12/26 10:52:29;;;;;;;3.50;1.40;;;;;;;19.64;65.23;100228.77;108173;1285;22228;-61
2023/12/26 10:55:00;;;;;;;3.10;1.30;;;;;;;19.68;65.70;100223.73;108095;1276;22031;-61
2023/12/26 10:57:29;;;;;;;3.70;1.60;;;;;;;19.71;65.78;100222.11;108131;1285;22003;-62
2023/12/26 11:00:47;;;;;;;3.60;1.70;;;;;;;19.72;64.77;100221.73;108131;1285;24716;-61
2023/12/26 13:51:43;;;;;;;25.60;16.70;;;;;;;19.18;60.43;100127.37;108051;1285;21991;-60
2023/12/26 13:54:10;;;;;;;8.10;5.40;;;;;;;19.03;60.62;100136.89;108155;1285;21990;-61
2023/12/26 13:56:39;;;;;;;8.20;4.20;;;;;;;18.88;61.07;100138.17;108104;1273;22002;-60
2023/12/26 13:59:04;;;;;;;7.10;3.00;;;;;;;18.68;61.54;100135.95;108094;1285;21995;-60
2023/12/26 14:01:30;;;;;;;8.70;4.10;;;;;;;18.54;62.18;100134.34;108080;1285;22006;-61
2023/12/26 14:03:56;;;;;;;8.00;4.20;;;;;;;18.43;62.51;100132.35;108124;1285;21987;-61